Main page
METAR-TAF:

METAR-TAF

Airports :

Lydd Airport

Lydd, England

latitude: 50-57N, longitude: 000-56E, elevation: 3 m

Current weather observation

The report was made 30 minutes ago, at 18:20 UTC
Wind 15 kt from the West/Southwest
Temperature 8°C
Humidity 93%
Pressure 1024 hPa
Visibility 10 km or more
Few clouds at a height of 2700 ft
Broken clouds at a height of 3500 ft

METAR: EGMD 291820Z 24015KT 9999 FEW027 BKN035 08/07 Q1024

Time: 18:50 (18:50 UTC)

Forecast

The report was made 1 hour and 52 minutes ago, at 16:58 UTC
Forecast valid from 29 at 18 UTC to 30 at 03 UTC
Wind 11 kt from the West/Southwest
Visibility 10 km or more
Few clouds at a height of 1500 ft
Scattered clouds at a height of 2500 ft
Probability 30% :
Temporary
from 29 at 18 UTC to 29 at 20 UTC
Visibility: 7000 m
Broken clouds at a height of 900 ft
light rain, drizzle

TAF: EGMD 291658Z 2918/3003 25011KT 9999 FEW015 SCT025 PROB30 TEMPO 2918/2920 7000 -RADZ BKN009

Weather observations and forecasts of more than 4000 airports (METAR and TAF reports).

The available stations are represented by yellow and red dots on the map.

Hover mouse over dot to see the name of the station.

Then click to see weather observations and forecasts.

To change the map : click on the green buttons with a black cross to zoom in, on the green button with a dash to zoom out, or on the green arrows for adjacent maps.


METAR-TAF: